Time;durP1;ratioP1;P1;durP2;ratioP2;P2;SDS_P1;SDS_P2;PMS_P1;PMS_P2;Temp;Humidity;BMP_temperature;BMP_pressure;BME280_temperature;BME280_humidity;BME280_pressure;Samples;Min_cycle;Max_cycle;Signal;HPM_P1;HPM_P2
2024/04/08 00:17:39;;;;;;;;;;;;;;;;;;;;;
2024/04/08 00:28:37;;;;;;;;;;;;;;;;;;;;;
2024/04/08 00:45:56;;;;;;;;;;;;;;;;;;;;;
2024/04/08 00:59:47;;;;;;;0.00;0.00;;;;;;;10.78;100.00;99409.72;4738917;30;20603;-76
2024/04/08 01:12:16;;;;;;;0.00;0.00;;;;;;;10.81;100.00;99408.34;4761803;30;20138;-78
2024/04/08 01:15:16;;;;;;;;;;;;;;;;;;;;;
2024/04/08 01:28:32;;;;;;;0.00;0.00;;;;;;;10.73;100.00;99422.66;4774030;30;20126;-77
2024/04/08 01:31:16;;;;;;;;;;;;;;;;;;;;;
2024/04/08 01:34:03;;;;;;;;;;;;;;;;;;;;;
2024/04/08 01:37:14;;;;;;;0.00;0.00;;;;;;;10.11;100.00;99341.31;4711874;30;20652;-77
2024/04/08 01:40:11;;;;;;;;;;;;;;;;;;;;;
2024/04/08 01:43:02;;;;;;;0.00;0.00;;;;;;;10.24;100.00;99378.88;4777214;29;20027;-78
2024/04/08 01:45:48;;;;;;;0.00;0.00;;;;;;;10.52;100.00;99416.59;4815105;29;20056;-77
2024/04/08 01:48:17;;;;;;;0.00;0.00;;;;;;;10.40;100.00;99392.41;4871372;29;20041;-77
2024/04/08 01:50:42;;;;;;;0.00;0.00;;;;;;;10.35;100.00;99389.72;4851314;29;20045;-78
2024/04/08 01:53:25;;;;;;;0.00;0.00;;;;;;;10.37;100.00;99384.78;4874214;29;20036;-78
2024/04/08 01:55:53;;;;;;;0.00;0.00;;;;;;;10.37;100.00;99388.34;4877728;29;20028;-77
2024/04/08 02:02:16;;;;;;;0.00;0.00;;;;;;;10.53;100.00;99397.19;4845656;29;20404;-76
2024/04/08 02:15:08;;;;;;;;;;;;;;;;;;;;;
2024/04/08 02:18:09;;;;;;;;;;;;;;;;;;;;;
2024/04/08 02:24:17;;;;;;;0.00;0.00;;;;;;;10.44;100.00;99346.97;4812465;29;20061;-76
2024/04/08 02:26:43;;;;;;;0.10;0.10;;;;;;;10.52;100.00;99361.94;4875897;29;20033;-78
2024/04/08 02:29:16;;;;;;;0.00;0.00;;;;;;;10.38;100.00;99350.88;4857779;29;20029;-77
2024/04/08 02:31:47;;;;;;;0.10;0.10;;;;;;;10.28;100.00;99347.13;4870816;29;20062;-78
2024/04/08 02:34:13;;;;;;;0.00;0.00;;;;;;;10.20;100.00;99344.22;4869350;29;20041;-77
2024/04/08 02:36:40;;;;;;;0.00;0.00;;;;;;;10.27;100.00;99358.34;4871892;29;20051;-77
2024/04/08 02:39:08;;;;;;;0.00;0.00;;;;;;;10.40;100.00;99370.53;4862243;29;20385;-76
2024/04/08 02:42:05;;;;;;;0.00;0.00;;;;;;;10.27;100.00;99345.50;4873364;29;20026;-75
2024/04/08 02:44:32;;;;;;;0.00;0.00;;;;;;;10.35;100.00;99357.72;4870767;29;20029;-75
2024/04/08 02:46:58;;;;;;;0.10;0.10;;;;;;;10.16;100.00;99322.13;4863131;29;20047;-74
2024/04/08 02:49:24;;;;;;;0.00;0.00;;;;;;;10.31;100.00;99341.09;4872221;29;20034;-76
2024/04/08 02:51:49;;;;;;;0.00;0.00;;;;;;;10.14;100.00;99316.16;4873989;29;20072;-75
2024/04/08 02:54:30;;;;;;;0.10;0.10;;;;;;;10.19;100.00;99332.50;4851162;29;20029;-76
2024/04/08 02:56:56;;;;;;;0.00;0.00;;;;;;;10.10;100.00;99323.28;4843768;29;20124;-75
2024/04/08 02:59:23;;;;;;;0.00;0.00;;;;;;;10.03;100.00;99317.34;4872076;29;20540;-76
2024/04/08 03:01:53;;;;;;;0.00;0.00;;;;;;;9.84;100.00;99307.19;4865922;29;20811;-76
2024/04/08 03:04:19;;;;;;;0.00;0.00;;;;;;;9.90;100.00;99340.69;4871689;29;20441;-76
2024/04/08 03:06:44;;;;;;;0.00;0.00;;;;;;;9.87;100.00;99339.38;4837129;29;20046;-76
2024/04/08 03:09:10;;;;;;;0.00;0.00;;;;;;;9.93;100.00;99338.22;4854542;29;20033;-76
2024/04/08 03:11:35;;;;;;;0.00;0.00;;;;;;;10.03;100.00;99347.41;4874819;29;20032;-77
2024/04/08 03:14:01;;;;;;;0.00;0.00;;;;;;;10.03;100.00;99341.94;4850122;29;20033;-77
2024/04/08 03:16:27;;;;;;;0.00;0.00;;;;;;;9.89;100.00;99326.22;4873095;29;20040;-77
2024/04/08 03:18:53;;;;;;;0.00;0.00;;;;;;;9.98;100.00;99348.25;4867512;29;20163;-76
2024/04/08 03:21:18;;;;;;;0.00;0.00;;;;;;;9.91;100.00;99345.84;4872946;29;20037;-77
2024/04/08 03:23:45;;;;;;;0.00;0.00;;;;;;;10.03;100.00;99363.78;4859893;29;20025;-76
2024/04/08 03:26:12;;;;;;;0.00;0.00;;;;;;;10.01;100.00;99363.28;4871399;29;20085;-75
2024/04/08 03:28:38;;;;;;;0.00;0.00;;;;;;;10.03;100.00;99366.50;4878375;29;20021;-75
2024/04/08 03:31:05;;;;;;;0.00;0.00;;;;;;;10.00;100.00;99362.44;4880210;29;20096;-76
2024/04/08 03:37:25;;;;;;;;;;;;;;;;;;;;;
2024/04/08 03:40:40;;;;;;;0.00;0.00;;;;;;;9.63;100.00;99346.69;4846050;29;20601;-77
2024/04/08 03:43:07;;;;;;;0.00;0.00;;;;;;;9.35;100.00;99310.88;4872937;29;20033;-76
2024/04/08 03:45:33;;;;;;;0.00;0.00;;;;;;;9.32;100.00;99317.72;4886073;29;20041;-76
2024/04/08 03:48:11;;;;;;;0.00;0.00;;;;;;;9.25;100.00;99328.94;4874353;29;20060;-76
2024/04/08 03:51:45;;;;;;;;;;;;;;;;;;;;;
2024/04/08 03:54:42;;;;;;;0.00;0.00;;;;;;;9.15;100.00;99347.31;4868541;29;20041;-77
2024/04/08 03:58:06;;;;;;;0.00;0.00;;;;;;;9.17;100.00;99340.47;4857578;29;20664;-76
2024/04/08 04:00:36;;;;;;;0.00;0.00;;;;;;;8.85;100.00;99298.13;4881684;29;20053;-76
2024/04/08 04:03:02;;;;;;;0.00;0.00;;;;;;;9.14;100.00;99343.78;4875573;29;20192;-79
2024/04/08 04:05:28;;;;;;;0.00;0.00;;;;;;;8.84;100.00;99292.97;4859284;29;20116;-80
2024/04/08 04:08:41;;;;;;;;;;;;;;;;;;;;;
2024/04/08 04:14:46;;;;;;;0.00;0.00;;;;;;;8.86;100.00;99279.84;4860388;29;20040;-77
2024/04/08 04:17:29;;;;;;;0.00;0.00;;;;;;;9.14;100.00;99318.41;4861099;29;20056;-76
2024/04/08 04:23:38;;;;;;;0.00;0.00;;;;;;;9.36;100.00;99326.13;4856951;29;20404;-76
2024/04/08 04:26:16;;;;;;;0.00;0.00;;;;;;;9.14;100.00;99277.47;4837312;29;20571;-77
2024/04/08 04:36:37;;;;;;;;;;;;;;;;;;;;;
2024/04/08 04:57:28;;;;;;;0.00;0.00;;;;;;;9.44;100.00;99262.78;4750999;30;20128;-76
2024/04/08 05:00:31;;;;;;;0.00;0.00;;;;;;;9.72;100.00;99307.53;4711270;30;20045;-75
2024/04/08 05:03:02;;;;;;;0.00;0.00;;;;;;;9.62;100.00;99285.81;4746389;30;20035;-76
2024/04/08 05:05:28;;;;;;;0.00;0.00;;;;;;;9.37;100.00;99254.13;4743339;29;20127;-76
2024/04/08 05:07:54;;;;;;;0.00;0.00;;;;;;;9.64;100.00;99294.53;4820633;29;20248;-76
2024/04/08 05:10:20;;;;;;;0.00;0.00;;;;;;;9.59;100.00;99283.66;4818758;29;20109;-76
2024/04/08 05:12:45;;;;;;;0.00;0.00;;;;;;;9.50;100.00;99256.16;4834893;29;20188;-75
2024/04/08 05:15:22;;;;;;;0.00;0.00;;;;;;;9.52;100.00;99264.91;4859763;29;20435;-76
2024/04/08 05:18:14;;;;;;;0.10;0.10;;;;;;;9.54;100.00;99268.16;4874348;29;20392;-76
2024/04/08 05:21:08;;;;;;;;;;;;;;;;;;;;;
2024/04/08 05:23:41;;;;;;;0.00;0.00;;;;;;;9.72;100.00;99274.78;4877619;29;20031;-77
2024/04/08 05:45:22;;;;;;;;;;;;;;;;;;;;;
2024/04/08 05:52:27;;;;;;;0.00;0.00;;;;;;;9.80;100.00;99270.63;4656909;30;20125;-77
2024/04/08 05:55:02;;;;;;;0.00;0.00;;;;;;;9.93;100.00;99286.31;4622496;30;20101;-77
2024/04/08 05:57:54;;;;;;;0.00;0.00;;;;;;;9.90;100.00;99286.91;4640569;30;20555;-77
2024/04/08 06:01:32;;;;;;;;;;;;;;;;;;;;;
2024/04/08 06:04:41;;;;;;;0.00;0.00;;;;;;;9.90;100.00;99254.13;4686171;30;20038;-79
2024/04/08 06:10:15;;;;;;;0.00;0.00;;;;;;;10.22;100.00;99282.72;4850298;29;20501;-78
2024/04/08 06:12:43;;;;;;;0.00;0.00;;;;;;;10.09;100.00;99248.72;4854938;29;20078;-76
2024/04/08 06:15:08;;;;;;;0.00;0.00;;;;;;;10.13;100.00;99248.94;4867772;29;20535;-77
2024/04/08 06:17:34;;;;;;;0.00;0.00;;;;;;;10.44;100.00;99300.50;4869308;29;20033;-77
2024/04/08 06:20:10;;;;;;;0.10;0.10;;;;;;;10.40;100.00;99291.28;4874652;29;20112;-76
2024/04/08 06:23:22;;;;;;;;;;;;;;;;;;;;;
2024/04/08 06:26:25;;;;;;;;;;;;;;;;;;;;;
2024/04/08 06:40:19;;;;;;;;;;;;;;;;;;;;;
2024/04/08 06:43:38;;;;;;;;;;;;;;;;;;;;;
2024/04/08 06:46:09;;;;;;;0.00;0.00;;;;;;;10.93;100.00;99247.34;4742651;30;20040;-77
2024/04/08 06:52:31;;;;;;;;;;;;;;;11.47;100.00;99288.88;4745687;30;20075;-77
2024/04/08 06:55:22;;;;;;;;;;;;;;;;;;;;;
2024/04/08 06:58:19;;;;;;;0.00;0.00;;;;;;;11.34;100.00;99241.19;4821825;29;20561;-77
2024/04/08 07:05:21;;;;;;;0.00;0.00;;;;;;;11.43;100.00;99255.00;4834261;29;20098;-76
2024/04/08 07:11:31;;;;;;;;;;;;;;;;;;;;;
2024/04/08 07:18:23;;;;;;;0.00;0.00;;;;;;;12.10;100.00;99273.00;4753451;30;20104;-77
2024/04/08 08:51:59;;;;;;;;;;;;;;;;;;;;;
2024/04/08 08:54:36;;;;;;;0.00;0.00;;;;;;;15.98;70.04;99218.06;4869502;29;20037;-75
2024/04/08 08:57:34;;;;;;;;;;;;;;;;;;;;;
2024/04/08 09:04:45;;;;;;;;;;;;;;;;;;;;;
2024/04/08 09:28:29;;;;;;;0.00;0.00;;;;;;;24.58;38.98;99164.88;4668362;30;20065;-76
2024/04/08 09:31:08;;;;;;;;;;;;;;;;;;;;;
2024/04/08 09:37:10;;;;;;;0.00;0.00;;;;;;;28.92;32.40;99181.81;4645493;30;20046;-77
2024/04/08 09:40:28;;;;;;;;;;;;;;;;;;;;;
2024/04/08 09:47:04;;;;;;;;;;;;;;;;;;;;;
2024/04/08 09:53:35;;;;;;;;;;;;;;;;;;;;;
2024/04/08 10:21:57;;;;;;;;;;;;;;;;;;;;;
2024/04/08 12:49:59;;;;;;;;;;;;;;;;;;;;;
2024/04/08 13:03:54;;;;;;;;;;;;;;;;;;;;;
2024/04/08 13:44:46;;;;;;;;;;;;;;;;;;;;;
2024/04/08 15:36:08;;;;;;;;;;;;;;;;;;;;;
2024/04/08 17:41:51;;;;;;;;;;;;;;;;;;;;;
2024/04/08 17:44:19;;;;;;;0.10;0.10;;;;;;;10.94;100.00;98652.75;4848539;29;20053;-79
2024/04/08 17:51:28;;;;;;;;;;;;;;;;;;;;;
2024/04/08 17:57:18;;;;;;;0.00;0.00;;;;;;;10.13;100.00;98698.00;4720795;30;20054;-79
2024/04/08 18:00:14;;;;;;;0.10;0.10;;;;;;;9.93;100.00;98685.59;4776091;30;20044;-79
2024/04/08 18:02:50;;;;;;;0.00;0.00;;;;;;;9.84;100.00;98679.22;4769058;30;20051;-78
2024/04/08 18:05:42;;;;;;;0.00;0.00;;;;;;;9.66;100.00;98639.19;4776976;30;20043;-81
2024/04/08 18:12:26;;;;;;;0.05;0.05;;;;;;;9.49;100.00;98588.75;4836731;29;20056;-78
2024/04/08 18:19:35;;;;;;;0.00;0.00;;;;;;;9.56;100.00;98611.00;4795813;29;20038;-79
2024/04/08 18:22:25;;;;;;;0.00;0.00;;;;;;;9.86;100.00;98657.88;4796808;29;20046;-80
2024/04/08 18:25:06;;;;;;;;;;;;;;;;;;;;;
2024/04/08 18:27:34;;;;;;;0.00;0.00;;;;;;;9.61;100.00;98608.16;4808514;29;20028;-78
2024/04/08 18:30:53;;;;;;;;;;;;;;;;;;;;;
2024/04/08 18:33:54;;;;;;;0.03;0.03;;;;;;;10.06;100.00;98658.56;4809103;29;20049;-78
2024/04/08 18:54:15;;;;;;;0.00;0.00;;;;;;;9.90;100.00;98641.69;4813508;29;20104;-80
2024/04/08 18:56:58;;;;;;;0.00;0.00;;;;;;;9.74;100.00;98627.56;4784474;29;20037;-81
2024/04/08 19:38:53;;;;;;;0.08;0.08;;;;;;;8.99;100.00;98689.47;5089606;23;20048;-79
2024/04/08 19:41:39;;;;;;;0.00;0.00;;;;;;;8.88;100.00;98684.19;4889069;29;20124;-77
2024/04/08 19:44:27;;;;;;;0.00;0.00;;;;;;;8.52;100.00;98652.03;4886121;29;20076;-79
2024/04/08 19:47:45;;;;;;;;;;;;;;;;;;;;;
2024/04/08 19:50:52;;;;;;;0.10;0.10;;;;;;;8.71;100.00;98694.81;4881057;29;20024;-80
2024/04/08 19:56:47;;;;;;;;;;;;;;;;;;;;;
2024/04/08 20:02:26;;;;;;;0.00;0.00;;;;;;;8.39;100.00;98667.19;4830005;29;20098;-78
2024/04/08 20:05:01;;;;;;;;;;;;;;;;;;;;;
2024/04/08 20:08:07;;;;;;;0.00;0.00;;;;;;;8.56;100.00;98672.16;4873888;29;20500;-78
2024/04/08 20:10:54;;;;;;;;;;;;;;;;;;;;;
2024/04/08 20:13:30;;;;;;;0.00;0.00;;;;;;;8.30;100.00;98703.56;4868850;29;20047;-77
2024/04/08 20:16:55;;;;;;;;;;;;;;;;;;;;;
2024/04/08 20:19:35;;;;;;;0.10;0.10;;;;;;;8.46;100.00;98676.94;4886022;29;20546;-78
2024/04/08 20:22:52;;;;;;;;;;;;;;;;;;;;;
2024/04/08 20:26:17;;;;;;;;;;;;;;;;;;;;;
2024/04/08 20:28:46;;;;;;;0.10;0.10;;;;;;;8.30;100.00;98636.28;4836726;29;20037;-78
2024/04/08 20:31:12;;;;;;;0.00;0.00;;;;;;;8.35;100.00;98643.56;4891009;29;20029;-77
2024/04/08 20:34:04;;;;;;;0.00;0.00;;;;;;;8.31;100.00;98648.78;4871862;29;20480;-78
2024/04/08 20:36:38;;;;;;;;;;;;;;;;;;;;;
2024/04/08 20:39:21;;;;;;;0.00;0.00;;;;;;;8.27;100.00;98592.50;4896829;29;20089;-78
2024/04/08 20:41:48;;;;;;;0.00;0.00;;;;;;;8.19;100.00;98564.81;4897653;29;20088;-81
2024/04/08 20:44:50;;;;;;;;;;;;;;;;;;;;;
2024/04/08 20:47:16;;;;;;;0.00;0.00;;;;;;;8.36;100.00;98579.81;4888501;29;20048;-81
2024/04/08 20:49:41;;;;;;;0.00;0.00;;;;;;;8.36;100.00;98571.66;4883570;29;20103;-79
2024/04/08 20:52:10;;;;;;;0.00;0.00;;;;;;;8.53;100.00;98609.28;4890912;29;20060;-77
2024/04/08 20:59:34;;;;;;;0.00;0.00;;;;;;;7.81;100.00;98564.84;4785420;29;20111;-78
2024/04/08 21:02:40;;;;;;;;;;;;;;;;;;;;;
2024/04/08 21:05:09;;;;;;;0.00;0.00;;;;;;;8.18;100.00;98606.75;4888419;29;20028;-77
2024/04/08 21:08:11;;;;;;;;;;;;;;;;;;;;;
2024/04/08 21:21:38;;;;;;;0.00;0.00;;;;;;;8.11;100.00;98562.75;4768720;30;19929;-76
2024/04/08 21:28:32;;;;;;;;;;;;;;;;;;;;;
2024/04/08 21:31:39;;;;;;;0.00;0.00;;;;;;;8.21;100.00;98548.19;4744268;30;20056;-76
2024/04/08 21:38:23;;;;;;;0.00;0.00;;;;;;;8.01;100.00;98509.28;4732523;30;20486;-76
2024/04/08 21:40:57;;;;;;;0.00;0.00;;;;;;;8.08;100.00;98525.25;4714542;29;20127;-75
2024/04/08 21:43:41;;;;;;;0.00;0.00;;;;;;;8.13;100.00;98511.56;4808981;29;20131;-77
2024/04/08 21:49:32;;;;;;;0.00;0.00;;;;;;;8.29;100.00;98522.19;4823251;29;20443;-79
2024/04/08 21:53:13;;;;;;;;;;;;;;;;;;;;;
2024/04/08 21:55:40;;;;;;;0.00;0.00;;;;;;;8.10;100.00;98490.34;4891336;29;20056;-79
2024/04/08 21:59:02;;;;;;;0.00;0.00;;;;;;;7.88;98.68;98438.47;4894452;29;20598;-78
2024/04/08 22:01:45;;;;;;;0.00;0.00;;;;;;;8.14;100.00;98506.91;4866815;29;20425;-76
2024/04/08 22:08:20;;;;;;;;;;;;;;;;;;;;;
2024/04/08 23:30:49;;;;;;;0.00;0.00;;;;;;;6.94;100.00;98277.81;4869700;29;20131;-77
2024/04/08 23:33:41;;;;;;;0.00;0.00;;;;;;;7.04;100.00;98268.69;4866590;29;20512;-78
2024/04/08 23:36:30;;;;;;;0.00;0.00;;;;;;;6.91;100.00;98253.97;4857890;29;20512;-77
2024/04/08 23:42:57;;;;;;;0.00;0.00;;;;;;;6.97;100.00;98242.72;4846688;29;20412;-79
2024/04/08 23:45:26;;;;;;;0.00;0.00;;;;;;;7.09;100.00;98223.22;4861855;29;20053;-79
2024/04/08 23:48:02;;;;;;;0.00;0.00;;;;;;;7.24;100.00;98234.94;4870744;29;20182;-79
2024/04/08 23:50:27;;;;;;;0.00;0.00;;;;;;;7.35;100.00;98230.97;4858657;29;20040;-78
